sensor_id;sensor_type;location;lat;lon;timestamp;temperature;humidity
15926;DHT22;8062;53.882;10.642;2023-04-04T00:00:00;-2.40;99.90
15926;DHT22;8062;53.882;10.642;2023-04-04T00:01:19;-2.40;99.90
15926;DHT22;8062;53.882;10.642;2023-04-04T00:02:38;-2.40;99.90
15926;DHT22;8062;53.882;10.642;2023-04-04T00:03:58;-2.40;99.90
15926;DHT22;8062;53.882;10.642;2023-04-04T00:05:18;-2.30;99.90
15926;DHT22;8062;53.882;10.642;2023-04-04T00:06:37;-2.40;99.90
15926;DHT22;8062;53.882;10.642;2023-04-04T00:08:02;-2.40;99.90
15926;DHT22;8062;53.882;10.642;2023-04-04T00:09:22;-2.30;99.90
15926;DHT22;8062;53.882;10.642;2023-04-04T00:10:41;-2.40;99.90
15926;DHT22;8062;53.882;10.642;2023-04-04T00:12:01;-2.40;99.90
15926;DHT22;8062;53.882;10.642;2023-04-04T00:13:21;-2.30;99.90
15926;DHT22;8062;53.882;10.642;2023-04-04T00:14:40;-2.30;99.90
15926;DHT22;8062;53.882;10.642;2023-04-04T00:16:00;-2.30;99.90
15926;DHT22;8062;53.882;10.642;2023-04-04T00:17:20;-2.40;99.90
15926;DHT22;8062;53.882;10.642;2023-04-04T00:18:39;-2.30;99.90
15926;DHT22;8062;53.882;10.642;2023-04-04T00:19:59;-2.30;99.90
15926;DHT22;8062;53.882;10.642;2023-04-04T00:21:18;-2.30;99.90
15926;DHT22;8062;53.882;10.642;2023-04-04T00:22:37;-2.30;99.90
15926;DHT22;8062;53.882;10.642;2023-04-04T00:23:57;-2.20;99.90
15926;DHT22;8062;53.882;10.642;2023-04-04T00:25:16;-2.20;99.90
15926;DHT22;8062;53.882;10.642;2023-04-04T00:26:36;-2.30;99.90
15926;DHT22;8062;53.882;10.642;2023-04-04T00:27:55;-2.20;99.90
15926;DHT22;8062;53.882;10.642;2023-04-04T00:29:18;-2.20;99.90
15926;DHT22;8062;53.882;10.642;2023-04-04T00:30:38;-2.30;99.90
15926;DHT22;8062;53.882;10.642;2023-04-04T00:31:57;-2.30;99.90
15926;DHT22;8062;53.882;10.642;2023-04-04T00:33:17;-2.40;99.90
15926;DHT22;8062;53.882;10.642;2023-04-04T00:34:36;-2.40;99.90
15926;DHT22;8062;53.882;10.642;2023-04-04T00:35:56;-2.40;99.90
15926;DHT22;8062;53.882;10.642;2023-04-04T00:37:16;-2.40;99.90
15926;DHT22;8062;53.882;10.642;2023-04-04T00:38:35;-2.40;99.90
15926;DHT22;8062;53.882;10.642;2023-04-04T00:39:55;-2.40;99.90
15926;DHT22;8062;53.882;10.642;2023-04-04T00:41:15;-2.40;99.90
15926;DHT22;8062;53.882;10.642;2023-04-04T00:42:35;-2.40;99.90
15926;DHT22;8062;53.882;10.642;2023-04-04T00:43:55;-2.40;99.90
15926;DHT22;8062;53.882;10.642;2023-04-04T00:45:15;-2.40;99.90
15926;DHT22;8062;53.882;10.642;2023-04-04T00:46:34;-2.40;99.90
15926;DHT22;8062;53.882;10.642;2023-04-04T00:47:54;-2.40;99.90
15926;DHT22;8062;53.882;10.642;2023-04-04T00:49:14;-2.40;99.90
15926;DHT22;8062;53.882;10.642;2023-04-04T00:50:34;-2.40;99.90
15926;DHT22;8062;53.882;10.642;2023-04-04T00:51:54;-2.40;99.90
15926;DHT22;8062;53.882;10.642;2023-04-04T00:53:14;-2.40;99.90
15926;DHT22;8062;53.882;10.642;2023-04-04T00:54:34;-2.40;99.90
15926;DHT22;8062;53.882;10.642;2023-04-04T00:55:53;-2.40;99.90
15926;DHT22;8062;53.882;10.642;2023-04-04T00:57:13;-2.40;99.90
15926;DHT22;8062;53.882;10.642;2023-04-04T00:58:32;-2.50;99.90
15926;DHT22;8062;53.882;10.642;2023-04-04T00:59:52;-2.50;99.90
15926;DHT22;8062;53.882;10.642;2023-04-04T01:01:12;-2.40;99.90
15926;DHT22;8062;53.882;10.642;2023-04-04T01:02:31;-2.50;99.90
15926;DHT22;8062;53.882;10.642;2023-04-04T01:03:51;-2.50;99.90
15926;DHT22;8062;53.882;10.642;2023-04-04T01:05:12;-2.50;99.90
15926;DHT22;8062;53.882;10.642;2023-04-04T01:06:32;-2.50;99.90
15926;DHT22;8062;53.882;10.642;2023-04-04T01:07:51;-2.50;99.90
15926;DHT22;8062;53.882;10.642;2023-04-04T01:09:11;-2.50;99.90
15926;DHT22;8062;53.882;10.642;2023-04-04T01:10:32;-2.50;99.90
15926;DHT22;8062;53.882;10.642;2023-04-04T01:11:52;-2.50;99.90
15926;DHT22;8062;53.882;10.642;2023-04-04T01:13:14;-2.60;99.90
15926;DHT22;8062;53.882;10.642;2023-04-04T01:14:34;-2.60;99.90
15926;DHT22;8062;53.882;10.642;2023-04-04T01:15:54;-2.70;99.90
15926;DHT22;8062;53.882;10.642;2023-04-04T01:17:14;-2.70;99.90
15926;DHT22;8062;53.882;10.642;2023-04-04T01:18:35;-2.70;99.90
15926;DHT22;8062;53.882;10.642;2023-04-04T01:20:07;-2.70;99.90
15926;DHT22;8062;53.882;10.642;2023-04-04T01:21:36;-2.70;99.90
15926;DHT22;8062;53.882;10.642;2023-04-04T01:22:58;-2.70;99.90
15926;DHT22;8062;53.882;10.642;2023-04-04T01:24:18;-2.70;99.90
15926;DHT22;8062;53.882;10.642;2023-04-04T01:25:47;-2.70;99.90
15926;DHT22;8062;53.882;10.642;2023-04-04T01:27:07;-2.70;99.90
15926;DHT22;8062;53.882;10.642;2023-04-04T01:28:32;-2.70;99.90
15926;DHT22;8062;53.882;10.642;2023-04-04T01:29:53;-2.60;99.90
15926;DHT22;8062;53.882;10.642;2023-04-04T01:31:14;-2.60;99.90
15926;DHT22;8062;53.882;10.642;2023-04-04T01:32:54;-2.60;99.90
15926;DHT22;8062;53.882;10.642;2023-04-04T01:34:43;-2.60;99.90
15926;DHT22;8062;53.882;10.642;2023-04-04T01:36:18;-2.60;99.90
15926;DHT22;8062;53.882;10.642;2023-04-04T01:37:52;-2.60;99.90
15926;DHT22;8062;53.882;10.642;2023-04-04T01:39:29;-2.60;99.90
15926;DHT22;8062;53.882;10.642;2023-04-04T01:40:54;-2.60;99.90
15926;DHT22;8062;53.882;10.642;2023-04-04T01:42:16;-2.60;99.90
15926;DHT22;8062;53.882;10.642;2023-04-04T01:43:39;-2.60;99.90
15926;DHT22;8062;53.882;10.642;2023-04-04T01:44:59;-2.60;99.90
15926;DHT22;8062;53.882;10.642;2023-04-04T01:46:25;-2.50;99.90
15926;DHT22;8062;53.882;10.642;2023-04-04T01:47:45;-2.50;99.90
15926;DHT22;8062;53.882;10.642;2023-04-04T01:49:09;-2.50;99.90
15926;DHT22;8062;53.882;10.642;2023-04-04T01:50:29;-2.50;99.90
15926;DHT22;8062;53.882;10.642;2023-04-04T01:51:50;-2.50;99.90
15926;DHT22;8062;53.882;10.642;2023-04-04T01:53:10;-2.50;99.90
15926;DHT22;8062;53.882;10.642;2023-04-04T01:54:29;-2.60;99.90
15926;DHT22;8062;53.882;10.642;2023-04-04T01:55:51;-2.60;99.90
15926;DHT22;8062;53.882;10.642;2023-04-04T01:57:12;-2.50;99.90
15926;DHT22;8062;53.882;10.642;2023-04-04T01:58:32;-2.50;99.90
15926;DHT22;8062;53.882;10.642;2023-04-04T01:59:52;-2.60;99.90
15926;DHT22;8062;53.882;10.642;2023-04-04T02:01:12;-2.50;99.90
15926;DHT22;8062;53.882;10.642;2023-04-04T02:02:32;-2.60;99.90
15926;DHT22;8062;53.882;10.642;2023-04-04T02:03:52;-2.60;99.90
15926;DHT22;8062;53.882;10.642;2023-04-04T02:05:12;-2.60;99.90
15926;DHT22;8062;53.882;10.642;2023-04-04T02:06:31;-2.60;99.90
15926;DHT22;8062;53.882;10.642;2023-04-04T02:07:51;-2.60;99.90
15926;DHT22;8062;53.882;10.642;2023-04-04T02:09:22;-2.50;99.90
15926;DHT22;8062;53.882;10.642;2023-04-04T02:10:41;-2.50;99.90
15926;DHT22;8062;53.882;10.642;2023-04-04T02:12:01;-2.50;99.90
15926;DHT22;8062;53.882;10.642;2023-04-04T02:13:21;-2.50;99.90
15926;DHT22;8062;53.882;10.642;2023-04-04T02:14:42;-2.50;99.90
15926;DHT22;8062;53.882;10.642;2023-04-04T02:16:01;-2.50;99.90
15926;DHT22;8062;53.882;10.642;2023-04-04T02:17:21;-2.50;99.90
15926;DHT22;8062;53.882;10.642;2023-04-04T02:18:41;-2.40;99.90
15926;DHT22;8062;53.882;10.642;2023-04-04T02:20:01;-2.40;99.90
15926;DHT22;8062;53.882;10.642;2023-04-04T02:21:20;-2.50;99.90
15926;DHT22;8062;53.882;10.642;2023-04-04T02:22:40;-2.40;99.90
15926;DHT22;8062;53.882;10.642;2023-04-04T02:23:59;-2.50;99.90
15926;DHT22;8062;53.882;10.642;2023-04-04T02:25:23;-2.50;99.90
15926;DHT22;8062;53.882;10.642;2023-04-04T02:26:43;-2.50;99.90
15926;DHT22;8062;53.882;10.642;2023-04-04T02:28:02;-2.50;99.90
15926;DHT22;8062;53.882;10.642;2023-04-04T02:29:22;-2.50;99.90
15926;DHT22;8062;53.882;10.642;2023-04-04T02:30:41;-2.50;99.90
15926;DHT22;8062;53.882;10.642;2023-04-04T02:32:01;-2.50;99.90
15926;DHT22;8062;53.882;10.642;2023-04-04T02:33:20;-2.50;99.90
15926;DHT22;8062;53.882;10.642;2023-04-04T02:34:41;-2.50;99.90
15926;DHT22;8062;53.882;10.642;2023-04-04T02:36:01;-2.50;99.90
15926;DHT22;8062;53.882;10.642;2023-04-04T02:37:21;-2.50;99.90
15926;DHT22;8062;53.882;10.642;2023-04-04T02:38:44;-2.50;99.90
15926;DHT22;8062;53.882;10.642;2023-04-04T02:40:04;-2.50;99.90
15926;DHT22;8062;53.882;10.642;2023-04-04T02:41:27;-2.50;99.90
15926;DHT22;8062;53.882;10.642;2023-04-04T02:42:47;-2.50;99.90
15926;DHT22;8062;53.882;10.642;2023-04-04T02:44:07;-2.50;99.90
15926;DHT22;8062;53.882;10.642;2023-04-04T02:45:28;-2.50;99.90
15926;DHT22;8062;53.882;10.642;2023-04-04T02:46:55;-2.60;99.90
15926;DHT22;8062;53.882;10.642;2023-04-04T02:48:21;-2.60;99.90
15926;DHT22;8062;53.882;10.642;2023-04-04T02:49:43;-2.50;99.90
15926;DHT22;8062;53.882;10.642;2023-04-04T02:51:04;-2.50;99.90
15926;DHT22;8062;53.882;10.642;2023-04-04T02:52:25;-2.50;99.90
15926;DHT22;8062;53.882;10.642;2023-04-04T02:53:45;-2.50;99.90
15926;DHT22;8062;53.882;10.642;2023-04-04T02:55:19;-2.50;99.90
15926;DHT22;8062;53.882;10.642;2023-04-04T02:56:39;-2.50;99.90
15926;DHT22;8062;53.882;10.642;2023-04-04T02:57:59;-2.50;99.90
15926;DHT22;8062;53.882;10.642;2023-04-04T02:59:20;-2.50;99.90
15926;DHT22;8062;53.882;10.642;2023-04-04T03:00:39;-2.50;99.90
15926;DHT22;8062;53.882;10.642;2023-04-04T03:01:59;-2.50;99.90
15926;DHT22;8062;53.882;10.642;2023-04-04T03:03:20;-2.50;99.90
15926;DHT22;8062;53.882;10.642;2023-04-04T03:04:40;-2.50;99.90
15926;DHT22;8062;53.882;10.642;2023-04-04T03:05:59;-2.50;99.90
15926;DHT22;8062;53.882;10.642;2023-04-04T03:07:20;-2.50;99.90
15926;DHT22;8062;53.882;10.642;2023-04-04T03:08:40;-2.50;99.90
15926;DHT22;8062;53.882;10.642;2023-04-04T03:10:00;-2.50;99.90
15926;DHT22;8062;53.882;10.642;2023-04-04T03:11:19;-2.50;99.90
15926;DHT22;8062;53.882;10.642;2023-04-04T03:12:40;-2.50;99.90
15926;DHT22;8062;53.882;10.642;2023-04-04T03:14:00;-2.50;99.90
15926;DHT22;8062;53.882;10.642;2023-04-04T03:15:26;-2.60;99.90
15926;DHT22;8062;53.882;10.642;2023-04-04T03:16:46;-2.60;99.90
15926;DHT22;8062;53.882;10.642;2023-04-04T03:18:07;-2.60;99.90
15926;DHT22;8062;53.882;10.642;2023-04-04T03:19:27;-2.60;99.90
15926;DHT22;8062;53.882;10.642;2023-04-04T03:20:47;-2.60;99.90
15926;DHT22;8062;53.882;10.642;2023-04-04T03:22:08;-2.60;99.90
15926;DHT22;8062;53.882;10.642;2023-04-04T03:23:28;-2.50;99.90
15926;DHT22;8062;53.882;10.642;2023-04-04T03:24:47;-2.60;99.90
15926;DHT22;8062;53.882;10.642;2023-04-04T03:26:07;-2.60;99.90
15926;DHT22;8062;53.882;10.642;2023-04-04T03:27:30;-2.70;99.90
15926;DHT22;8062;53.882;10.642;2023-04-04T03:28:50;-2.70;99.90
15926;DHT22;8062;53.882;10.642;2023-04-04T03:30:13;-2.70;99.90
15926;DHT22;8062;53.882;10.642;2023-04-04T03:31:33;-2.70;99.90
15926;DHT22;8062;53.882;10.642;2023-04-04T03:32:52;-2.70;99.90
15926;DHT22;8062;53.882;10.642;2023-04-04T03:34:13;-2.70;99.90
15926;DHT22;8062;53.882;10.642;2023-04-04T03:35:37;-2.70;99.90
15926;DHT22;8062;53.882;10.642;2023-04-04T03:36:57;-2.70;99.90
15926;DHT22;8062;53.882;10.642;2023-04-04T03:38:17;-2.70;99.90
15926;DHT22;8062;53.882;10.642;2023-04-04T03:39:37;-2.70;99.90
15926;DHT22;8062;53.882;10.642;2023-04-04T03:41:00;-2.70;99.90
15926;DHT22;8062;53.882;10.642;2023-04-04T03:42:20;-2.70;99.90
15926;DHT22;8062;53.882;10.642;2023-04-04T03:43:40;-2.80;99.90
15926;DHT22;8062;53.882;10.642;2023-04-04T03:45:00;-2.70;99.90
15926;DHT22;8062;53.882;10.642;2023-04-04T03:46:24;-2.80;99.90
15926;DHT22;8062;53.882;10.642;2023-04-04T03:47:44;-2.80;99.90
15926;DHT22;8062;53.882;10.642;2023-04-04T03:49:04;-2.80;99.90
15926;DHT22;8062;53.882;10.642;2023-04-04T03:50:24;-2.80;99.90
15926;DHT22;8062;53.882;10.642;2023-04-04T03:51:45;-2.80;99.90
15926;DHT22;8062;53.882;10.642;2023-04-04T03:53:06;-2.80;99.90
15926;DHT22;8062;53.882;10.642;2023-04-04T03:54:27;-2.80;99.90
15926;DHT22;8062;53.882;10.642;2023-04-04T03:55:46;-2.80;99.90
15926;DHT22;8062;53.882;10.642;2023-04-04T03:57:06;-2.80;99.90
15926;DHT22;8062;53.882;10.642;2023-04-04T03:58:27;-2.80;99.90
15926;DHT22;8062;53.882;10.642;2023-04-04T03:59:47;-2.80;99.90
15926;DHT22;8062;53.882;10.642;2023-04-04T04:01:07;-2.80;99.90
15926;DHT22;8062;53.882;10.642;2023-04-04T04:02:26;-2.90;99.90
15926;DHT22;8062;53.882;10.642;2023-04-04T04:03:46;-2.90;99.90
15926;DHT22;8062;53.882;10.642;2023-04-04T04:05:06;-2.90;99.90
15926;DHT22;8062;53.882;10.642;2023-04-04T04:06:26;-2.90;99.90
15926;DHT22;8062;53.882;10.642;2023-04-04T04:07:45;-2.90;99.90
15926;DHT22;8062;53.882;10.642;2023-04-04T04:09:04;-2.90;99.90
15926;DHT22;8062;53.882;10.642;2023-04-04T04:10:24;-3.00;99.90
15926;DHT22;8062;53.882;10.642;2023-04-04T04:11:43;-2.90;99.90
15926;DHT22;8062;53.882;10.642;2023-04-04T04:13:03;-2.90;99.90
15926;DHT22;8062;53.882;10.642;2023-04-04T04:14:22;-2.90;99.90
15926;DHT22;8062;53.882;10.642;2023-04-04T04:15:42;-3.00;99.90
15926;DHT22;8062;53.882;10.642;2023-04-04T04:17:08;-2.90;99.90
15926;DHT22;8062;53.882;10.642;2023-04-04T04:18:28;-3.00;99.90
15926;DHT22;8062;53.882;10.642;2023-04-04T04:19:49;-3.00;99.90
15926;DHT22;8062;53.882;10.642;2023-04-04T04:21:10;-3.00;99.90
15926;DHT22;8062;53.882;10.642;2023-04-04T04:22:29;-3.00;99.90
15926;DHT22;8062;53.882;10.642;2023-04-04T04:23:49;-2.90;99.90
15926;DHT22;8062;53.882;10.642;2023-04-04T04:25:09;-2.90;99.90
15926;DHT22;8062;53.882;10.642;2023-04-04T04:26:29;-2.90;99.90
15926;DHT22;8062;53.882;10.642;2023-04-04T04:27:49;-2.90;99.90
15926;DHT22;8062;53.882;10.642;2023-04-04T04:29:13;-2.90;99.90
15926;DHT22;8062;53.882;10.642;2023-04-04T04:30:32;-2.90;99.90
15926;DHT22;8062;53.882;10.642;2023-04-04T04:31:52;-2.90;99.90
15926;DHT22;8062;53.882;10.642;2023-04-04T04:33:12;-2.90;99.90
15926;DHT22;8062;53.882;10.642;2023-04-04T04:34:40;-2.90;99.90
15926;DHT22;8062;53.882;10.642;2023-04-04T04:36:01;-3.00;99.90
15926;DHT22;8062;53.882;10.642;2023-04-04T04:37:26;-3.00;99.90
15926;DHT22;8062;53.882;10.642;2023-04-04T04:38:48;-3.00;99.90
15926;DHT22;8062;53.882;10.642;2023-04-04T04:40:09;-3.00;99.90
15926;DHT22;8062;53.882;10.642;2023-04-04T04:41:34;-3.00;99.90
15926;DHT22;8062;53.882;10.642;2023-04-04T04:42:55;-3.00;99.90
15926;DHT22;8062;53.882;10.642;2023-04-04T04:44:16;-3.00;99.90
15926;DHT22;8062;53.882;10.642;2023-04-04T04:45:35;-3.00;99.90
15926;DHT22;8062;53.882;10.642;2023-04-04T04:47:00;-3.00;99.90
15926;DHT22;8062;53.882;10.642;2023-04-04T04:48:19;-3.00;99.90
15926;DHT22;8062;53.882;10.642;2023-04-04T04:49:43;-3.00;99.90
15926;DHT22;8062;53.882;10.642;2023-04-04T04:51:07;-2.90;99.90
15926;DHT22;8062;53.882;10.642;2023-04-04T04:52:36;-2.90;99.90
15926;DHT22;8062;53.882;10.642;2023-04-04T04:53:56;-2.90;99.90
15926;DHT22;8062;53.882;10.642;2023-04-04T04:55:17;-2.90;99.90
15926;DHT22;8062;53.882;10.642;2023-04-04T04:56:42;-2.90;99.90
15926;DHT22;8062;53.882;10.642;2023-04-04T04:58:03;-2.90;99.90
15926;DHT22;8062;53.882;10.642;2023-04-04T04:59:24;-2.90;99.90
15926;DHT22;8062;53.882;10.642;2023-04-04T05:00:45;-2.80;99.90
15926;DHT22;8062;53.882;10.642;2023-04-04T05:02:04;-2.90;99.90
15926;DHT22;8062;53.882;10.642;2023-04-04T05:03:29;-2.80;99.90
15926;DHT22;8062;53.882;10.642;2023-04-04T05:04:50;-2.80;99.90
15926;DHT22;8062;53.882;10.642;2023-04-04T05:06:10;-2.80;99.90
15926;DHT22;8062;53.882;10.642;2023-04-04T05:07:31;-2.80;99.90
15926;DHT22;8062;53.882;10.642;2023-04-04T05:08:51;-2.80;99.90
15926;DHT22;8062;53.882;10.642;2023-04-04T05:10:16;-2.80;99.90
15926;DHT22;8062;53.882;10.642;2023-04-04T05:11:36;-2.80;99.90
15926;DHT22;8062;53.882;10.642;2023-04-04T05:12:57;-2.80;99.90
15926;DHT22;8062;53.882;10.642;2023-04-04T05:14:21;-2.80;99.90
15926;DHT22;8062;53.882;10.642;2023-04-04T05:15:46;-2.80;99.90
15926;DHT22;8062;53.882;10.642;2023-04-04T05:17:06;-2.80;99.90
15926;DHT22;8062;53.882;10.642;2023-04-04T05:18:27;-2.70;99.90
15926;DHT22;8062;53.882;10.642;2023-04-04T05:19:48;-2.70;99.90
15926;DHT22;8062;53.882;10.642;2023-04-04T05:21:12;-2.70;99.90
15926;DHT22;8062;53.882;10.642;2023-04-04T05:22:32;-2.70;99.90
15926;DHT22;8062;53.882;10.642;2023-04-04T05:23:51;-2.60;99.90
15926;DHT22;8062;53.882;10.642;2023-04-04T05:25:13;-2.70;99.90
15926;DHT22;8062;53.882;10.642;2023-04-04T05:26:37;-2.60;99.90
15926;DHT22;8062;53.882;10.642;2023-04-04T05:27:57;-2.60;99.90
15926;DHT22;8062;53.882;10.642;2023-04-04T05:29:17;-2.60;99.90
15926;DHT22;8062;53.882;10.642;2023-04-04T05:30:39;-2.60;99.90
15926;DHT22;8062;53.882;10.642;2023-04-04T05:32:05;-2.50;99.90
15926;DHT22;8062;53.882;10.642;2023-04-04T05:33:26;-2.50;99.90
15926;DHT22;8062;53.882;10.642;2023-04-04T05:34:55;-2.50;99.90
15926;DHT22;8062;53.882;10.642;2023-04-04T05:36:14;-2.50;99.90
15926;DHT22;8062;53.882;10.642;2023-04-04T05:37:43;-2.50;99.90
15926;DHT22;8062;53.882;10.642;2023-04-04T05:39:07;-2.50;99.90
15926;DHT22;8062;53.882;10.642;2023-04-04T05:40:31;-2.50;99.90
15926;DHT22;8062;53.882;10.642;2023-04-04T05:41:58;-2.50;99.90
15926;DHT22;8062;53.882;10.642;2023-04-04T05:43:19;-2.50;99.90
15926;DHT22;8062;53.882;10.642;2023-04-04T05:44:51;-2.50;99.90
15926;DHT22;8062;53.882;10.642;2023-04-04T05:46:12;-2.50;99.90
15926;DHT22;8062;53.882;10.642;2023-04-04T05:47:42;-2.50;99.90
15926;DHT22;8062;53.882;10.642;2023-04-04T05:49:02;-2.50;99.90
15926;DHT22;8062;53.882;10.642;2023-04-04T05:50:23;-2.40;99.90
15926;DHT22;8062;53.882;10.642;2023-04-04T05:51:43;-2.40;99.90
15926;DHT22;8062;53.882;10.642;2023-04-04T05:53:08;-2.30;99.90
15926;DHT22;8062;53.882;10.642;2023-04-04T05:54:27;-2.30;99.90
15926;DHT22;8062;53.882;10.642;2023-04-04T05:55:51;-2.20;99.90
15926;DHT22;8062;53.882;10.642;2023-04-04T05:57:11;-2.20;99.90
15926;DHT22;8062;53.882;10.642;2023-04-04T05:58:45;-2.20;99.90
15926;DHT22;8062;53.882;10.642;2023-04-04T06:00:07;-2.10;99.90
15926;DHT22;8062;53.882;10.642;2023-04-04T06:01:34;-2.10;99.90
15926;DHT22;8062;53.882;10.642;2023-04-04T06:03:01;-2.00;99.90
15926;DHT22;8062;53.882;10.642;2023-04-04T06:04:21;-1.90;99.90
15926;DHT22;8062;53.882;10.642;2023-04-04T06:05:42;-1.90;99.90
15926;DHT22;8062;53.882;10.642;2023-04-04T06:07:02;-1.80;99.90
15926;DHT22;8062;53.882;10.642;2023-04-04T06:08:22;-1.80;99.90
15926;DHT22;8062;53.882;10.642;2023-04-04T06:09:42;-1.70;99.90
15926;DHT22;8062;53.882;10.642;2023-04-04T06:11:02;-1.60;99.90
15926;DHT22;8062;53.882;10.642;2023-04-04T06:12:21;-1.60;99.90
15926;DHT22;8062;53.882;10.642;2023-04-04T06:13:41;-1.50;99.90
15926;DHT22;8062;53.882;10.642;2023-04-04T06:15:07;-1.40;99.90
15926;DHT22;8062;53.882;10.642;2023-04-04T06:16:26;-1.30;99.90
15926;DHT22;8062;53.882;10.642;2023-04-04T06:17:46;-1.30;99.90
15926;DHT22;8062;53.882;10.642;2023-04-04T06:19:06;-1.10;99.90
15926;DHT22;8062;53.882;10.642;2023-04-04T06:20:25;-1.10;99.90
15926;DHT22;8062;53.882;10.642;2023-04-04T06:21:46;-1.00;99.90
15926;DHT22;8062;53.882;10.642;2023-04-04T06:23:06;-0.90;99.90
15926;DHT22;8062;53.882;10.642;2023-04-04T06:24:30;-0.80;99.90
15926;DHT22;8062;53.882;10.642;2023-04-04T06:25:49;-0.70;99.90
15926;DHT22;8062;53.882;10.642;2023-04-04T06:27:11;-0.60;99.90
15926;DHT22;8062;53.882;10.642;2023-04-04T06:28:31;-0.50;99.90
15926;DHT22;8062;53.882;10.642;2023-04-04T06:29:51;-0.40;99.90
15926;DHT22;8062;53.882;10.642;2023-04-04T06:31:13;-0.20;99.90
15926;DHT22;8062;53.882;10.642;2023-04-04T06:32:33;0.00;99.90
15926;DHT22;8062;53.882;10.642;2023-04-04T06:33:54;0.20;99.90
15926;DHT22;8062;53.882;10.642;2023-04-04T06:35:15;0.50;99.90
15926;DHT22;8062;53.882;10.642;2023-04-04T06:36:46;0.70;99.90
15926;DHT22;8062;53.882;10.642;2023-04-04T06:38:06;1.20;99.90
15926;DHT22;8062;53.882;10.642;2023-04-04T06:39:27;1.70;99.90
15926;DHT22;8062;53.882;10.642;2023-04-04T06:40:49;2.20;99.90
15926;DHT22;8062;53.882;10.642;2023-04-04T06:42:09;2.90;99.90
15926;DHT22;8062;53.882;10.642;2023-04-04T06:43:31;3.50;99.90
15926;DHT22;8062;53.882;10.642;2023-04-04T06:44:50;4.50;99.90
15926;DHT22;8062;53.882;10.642;2023-04-04T06:46:10;5.10;99.90
15926;DHT22;8062;53.882;10.642;2023-04-04T06:47:31;5.70;99.90
15926;DHT22;8062;53.882;10.642;2023-04-04T06:48:50;6.30;99.90
15926;DHT22;8062;53.882;10.642;2023-04-04T06:50:10;7.00;99.90
15926;DHT22;8062;53.882;10.642;2023-04-04T06:51:32;7.50;98.90
15926;DHT22;8062;53.882;10.642;2023-04-04T06:52:52;8.20;96.40
15926;DHT22;8062;53.882;10.642;2023-04-04T06:54:13;7.90;95.00
15926;DHT22;8062;53.882;10.642;2023-04-04T06:55:33;8.30;96.00
15926;DHT22;8062;53.882;10.642;2023-04-04T06:56:53;8.70;94.30
15926;DHT22;8062;53.882;10.642;2023-04-04T06:58:13;9.10;93.70
15926;DHT22;8062;53.882;10.642;2023-04-04T06:59:32;9.00;93.90
15926;DHT22;8062;53.882;10.642;2023-04-04T07:00:52;9.40;92.10
15926;DHT22;8062;53.882;10.642;2023-04-04T07:02:11;9.20;92.30
15926;DHT22;8062;53.882;10.642;2023-04-04T07:03:30;9.40;92.00
15926;DHT22;8062;53.882;10.642;2023-04-04T07:04:50;9.60;92.20
15926;DHT22;8062;53.882;10.642;2023-04-04T07:06:10;9.50;91.90
15926;DHT22;8062;53.882;10.642;2023-04-04T07:07:30;9.40;91.30
15926;DHT22;8062;53.882;10.642;2023-04-04T07:08:49;9.30;91.40
15926;DHT22;8062;53.882;10.642;2023-04-04T07:10:09;9.20;91.80
15926;DHT22;8062;53.882;10.642;2023-04-04T07:11:29;9.30;91.80
15926;DHT22;8062;53.882;10.642;2023-04-04T07:12:49;9.30;91.70
15926;DHT22;8062;53.882;10.642;2023-04-04T07:14:09;9.20;92.10
15926;DHT22;8062;53.882;10.642;2023-04-04T07:15:29;9.10;92.20
15926;DHT22;8062;53.882;10.642;2023-04-04T07:16:48;8.90;90.90
15926;DHT22;8062;53.882;10.642;2023-04-04T07:18:08;8.70;90.90
15926;DHT22;8062;53.882;10.642;2023-04-04T07:19:27;8.60;91.50
15926;DHT22;8062;53.882;10.642;2023-04-04T07:20:47;8.70;91.80
15926;DHT22;8062;53.882;10.642;2023-04-04T07:22:06;8.60;92.00
15926;DHT22;8062;53.882;10.642;2023-04-04T07:23:26;8.70;92.10
15926;DHT22;8062;53.882;10.642;2023-04-04T07:24:46;8.50;91.50
15926;DHT22;8062;53.882;10.642;2023-04-04T07:26:06;8.40;93.00
15926;DHT22;8062;53.882;10.642;2023-04-04T07:27:26;8.40;92.20
15926;DHT22;8062;53.882;10.642;2023-04-04T07:28:45;8.40;91.70
15926;DHT22;8062;53.882;10.642;2023-04-04T07:30:06;8.40;91.80
15926;DHT22;8062;53.882;10.642;2023-04-04T07:31:25;8.40;92.30
15926;DHT22;8062;53.882;10.642;2023-04-04T07:32:45;8.40;93.00
15926;DHT22;8062;53.882;10.642;2023-04-04T07:34:05;8.40;92.30
15926;DHT22;8062;53.882;10.642;2023-04-04T07:35:26;8.40;92.10
15926;DHT22;8062;53.882;10.642;2023-04-04T07:36:45;8.50;93.00
15926;DHT22;8062;53.882;10.642;2023-04-04T07:38:05;8.60;92.10
15926;DHT22;8062;53.882;10.642;2023-04-04T07:39:25;8.40;91.80
15926;DHT22;8062;53.882;10.642;2023-04-04T07:40:47;8.50;93.30
15926;DHT22;8062;53.882;10.642;2023-04-04T07:42:06;8.50;91.80
15926;DHT22;8062;53.882;10.642;2023-04-04T07:43:26;8.60;93.40
15926;DHT22;8062;53.882;10.642;2023-04-04T07:44:46;8.50;92.90
15926;DHT22;8062;53.882;10.642;2023-04-04T07:46:05;8.40;92.10
15926;DHT22;8062;53.882;10.642;2023-04-04T07:47:25;8.60;93.00
15926;DHT22;8062;53.882;10.642;2023-04-04T07:48:45;8.70;93.20
15926;DHT22;8062;53.882;10.642;2023-04-04T07:50:05;8.50;92.70
15926;DHT22;8062;53.882;10.642;2023-04-04T07:51:25;8.40;92.30
15926;DHT22;8062;53.882;10.642;2023-04-04T07:52:49;8.40;92.10
15926;DHT22;8062;53.882;10.642;2023-04-04T07:54:14;8.60;92.60
15926;DHT22;8062;53.882;10.642;2023-04-04T07:55:33;8.40;92.40
15926;DHT22;8062;53.882;10.642;2023-04-04T07:56:53;8.10;92.70
15926;DHT22;8062;53.882;10.642;2023-04-04T07:58:13;7.70;93.40
15926;DHT22;8062;53.882;10.642;2023-04-04T07:59:32;7.60;93.70
15926;DHT22;8062;53.882;10.642;2023-04-04T08:00:51;7.40;92.60
15926;DHT22;8062;53.882;10.642;2023-04-04T08:02:11;7.30;93.30
15926;DHT22;8062;53.882;10.642;2023-04-04T08:03:30;7.40;93.30
15926;DHT22;8062;53.882;10.642;2023-04-04T08:04:50;7.50;93.20
15926;DHT22;8062;53.882;10.642;2023-04-04T08:06:10;7.80;93.30
15926;DHT22;8062;53.882;10.642;2023-04-04T08:07:30;7.70;94.50
15926;DHT22;8062;53.882;10.642;2023-04-04T08:08:50;7.40;93.70
15926;DHT22;8062;53.882;10.642;2023-04-04T08:10:10;7.20;93.80
15926;DHT22;8062;53.882;10.642;2023-04-04T08:11:30;6.90;94.00
15926;DHT22;8062;53.882;10.642;2023-04-04T08:12:49;6.70;94.80
15926;DHT22;8062;53.882;10.642;2023-04-04T08:14:09;6.70;95.60
15926;DHT22;8062;53.882;10.642;2023-04-04T08:15:30;7.00;94.20
15926;DHT22;8062;53.882;10.642;2023-04-04T08:16:50;7.10;92.50
15926;DHT22;8062;53.882;10.642;2023-04-04T08:18:10;7.10;93.50
15926;DHT22;8062;53.882;10.642;2023-04-04T08:19:29;7.10;92.70
15926;DHT22;8062;53.882;10.642;2023-04-04T08:20:49;7.10;93.30
15926;DHT22;8062;53.882;10.642;2023-04-04T08:22:09;6.80;93.90
15926;DHT22;8062;53.882;10.642;2023-04-04T08:23:28;6.70;93.80
15926;DHT22;8062;53.882;10.642;2023-04-04T08:24:48;6.90;93.80
15926;DHT22;8062;53.882;10.642;2023-04-04T08:26:09;6.90;93.80
15926;DHT22;8062;53.882;10.642;2023-04-04T08:27:30;7.00;92.90
15926;DHT22;8062;53.882;10.642;2023-04-04T08:28:49;7.00;93.10
15926;DHT22;8062;53.882;10.642;2023-04-04T08:30:10;6.90;92.80
15926;DHT22;8062;53.882;10.642;2023-04-04T08:31:31;6.80;94.40
15926;DHT22;8062;53.882;10.642;2023-04-04T08:32:51;6.90;94.90
15926;DHT22;8062;53.882;10.642;2023-04-04T08:34:10;6.70;94.30